createdAt,value
2023-01-29T00:00:00.226Z,3.60
2023-01-29T00:02:27.128Z,3.60
2023-01-29T00:05:12.955Z,3.60
2023-01-29T00:07:48.566Z,3.60
2023-01-29T00:10:22.312Z,3.60
2023-01-29T00:12:54.564Z,3.60
2023-01-29T00:15:28.283Z,3.60
2023-01-29T00:17:55.019Z,3.60
2023-01-29T00:20:28.257Z,3.60
2023-01-29T00:22:55.128Z,3.60
2023-01-29T00:25:28.282Z,3.60
2023-01-29T00:27:56.891Z,3.60
2023-01-29T00:30:30.237Z,3.60
2023-01-29T00:33:04.810Z,3.50
2023-01-29T00:35:39.260Z,3.50
2023-01-29T00:38:06.095Z,3.50
2023-01-29T00:40:59.267Z,3.50
2023-01-29T00:43:45.203Z,3.50
2023-01-29T00:46:18.391Z,3.60
2023-01-29T00:48:45.285Z,3.50
2023-01-29T00:51:18.313Z,3.60
2023-01-29T00:53:52.303Z,3.60
2023-01-29T00:56:25.267Z,3.60
2023-01-29T00:58:52.114Z,3.60
2023-01-29T01:01:46.358Z,3.60
2023-01-29T01:04:13.560Z,3.60
2023-01-29T01:06:48.422Z,3.60
2023-01-29T01:09:40.304Z,3.60
2023-01-29T01:12:13.310Z,3.70
2023-01-29T01:14:43.131Z,3.70
2023-01-29T01:17:19.479Z,3.70
2023-01-29T01:19:46.254Z,3.70
2023-01-29T01:22:13.144Z,3.70
2023-01-29T01:24:46.533Z,3.70
2023-01-29T01:27:24.386Z,3.80
2023-01-29T01:29:51.401Z,3.80
2023-01-29T01:32:25.398Z,3.80
2023-01-29T01:34:52.903Z,3.80
2023-01-29T01:37:27.375Z,3.80
2023-01-29T01:39:57.846Z,3.80
2023-01-29T01:42:37.341Z,3.80
2023-01-29T01:45:07.946Z,3.80
2023-01-29T01:48:18.397Z,3.80
2023-01-29T01:50:53.737Z,3.80
2023-01-29T01:53:45.368Z,3.80
2023-01-29T01:56:21.519Z,3.80
2023-01-29T01:58:59.498Z,3.80
2023-01-29T02:01:30.433Z,3.80
2023-01-29T02:04:29.452Z,3.80
2023-01-29T02:07:17.444Z,3.70
2023-01-29T02:10:12.515Z,3.70
2023-01-29T02:12:47.403Z,3.70
2023-01-29T02:15:20.438Z,3.70
2023-01-29T02:17:48.362Z,3.70
2023-01-29T02:20:32.453Z,3.70
2023-01-29T02:23:12.607Z,3.80
2023-01-29T02:26:22.440Z,3.80
2023-01-29T02:29:25.056Z,3.80
2023-01-29T02:32:24.483Z,3.80
2023-01-29T02:35:38.428Z,3.80
2023-01-29T02:38:39.296Z,3.70
2023-01-29T02:41:22.467Z,3.80
2023-01-29T02:44:21.441Z,3.80
2023-01-29T02:47:05.431Z,3.80
2023-01-29T02:49:38.444Z,3.80
2023-01-29T02:52:16.466Z,3.80
2023-01-29T02:54:53.471Z,3.80
2023-01-29T02:57:35.486Z,3.80
2023-01-29T03:00:25.499Z,3.80
2023-01-29T03:03:51.483Z,3.70
2023-01-29T03:06:31.583Z,3.80
2023-01-29T03:09:02.213Z,3.70
2023-01-29T03:11:47.462Z,3.80
2023-01-29T03:14:25.976Z,3.80
2023-01-29T03:17:00.532Z,3.80
2023-01-29T03:19:41.971Z,3.80
2023-01-29T03:22:17.590Z,3.80
2023-01-29T03:25:14.714Z,3.80
2023-01-29T03:28:24.596Z,3.80
2023-01-29T03:31:15.813Z,3.80
2023-01-29T03:33:58.542Z,3.80
2023-01-29T03:36:45.257Z,3.80
2023-01-29T03:39:20.537Z,3.80
2023-01-29T03:42:01.391Z,3.80
2023-01-29T03:45:14.536Z,3.80
2023-01-29T03:48:08.592Z,3.80
2023-01-29T03:50:50.608Z,3.80
2023-01-29T03:53:22.905Z,3.80
2023-01-29T03:56:13.560Z,3.80
2023-01-29T03:58:58.610Z,3.80
2023-01-29T04:01:44.718Z,3.80
2023-01-29T04:04:24.628Z,3.70
2023-01-29T04:06:53.160Z,3.70
2023-01-29T04:09:42.592Z,3.70
2023-01-29T04:12:11.400Z,3.70
2023-01-29T04:14:45.634Z,3.70
2023-01-29T04:17:23.606Z,3.70
2023-01-29T04:19:57.653Z,3.70
2023-01-29T04:22:36.213Z,3.70
2023-01-29T04:25:15.603Z,3.70
2023-01-29T04:28:06.262Z,3.70
2023-01-29T04:31:01.778Z,3.70
2023-01-29T04:33:58.902Z,3.70
2023-01-29T04:36:37.653Z,3.70
2023-01-29T04:39:13.592Z,3.60
2023-01-29T04:42:04.635Z,3.60
2023-01-29T04:45:18.819Z,3.60
2023-01-29T04:48:22.649Z,3.60
2023-01-29T04:51:11.098Z,3.60
2023-01-29T04:53:55.697Z,3.60
2023-01-29T04:56:42.648Z,3.60
2023-01-29T04:59:15.179Z,3.60
2023-01-29T05:01:49.740Z,3.60
2023-01-29T05:04:20.433Z,3.50
2023-01-29T05:07:01.686Z,3.60
2023-01-29T05:09:28.699Z,3.60
2023-01-29T05:12:02.683Z,3.60
2023-01-29T05:14:35.172Z,3.50
2023-01-29T05:17:15.670Z,3.60
2023-01-29T05:19:49.667Z,3.50
2023-01-29T05:22:28.686Z,3.60
2023-01-29T05:24:55.639Z,3.60
2023-01-29T05:27:59.716Z,3.60
2023-01-29T05:30:26.726Z,3.60
2023-01-29T05:32:59.756Z,3.60
2023-01-29T05:35:37.458Z,3.50
2023-01-29T05:38:15.759Z,3.50
2023-01-29T05:40:43.167Z,3.50
2023-01-29T05:43:29.749Z,3.50
2023-01-29T05:45:58.995Z,3.50
2023-01-29T05:48:29.019Z,3.50
2023-01-29T05:51:10.798Z,3.50
2023-01-29T05:53:44.756Z,3.50
2023-01-29T05:56:11.575Z,3.50
2023-01-29T05:58:38.554Z,3.50
2023-01-29T06:01:22.801Z,3.50
2023-01-29T06:03:57.777Z,3.60
2023-01-29T06:06:30.799Z,3.60
2023-01-29T06:08:57.579Z,3.60
2023-01-29T06:11:38.839Z,3.60
2023-01-29T06:14:13.740Z,3.60
2023-01-29T06:16:48.821Z,3.60
2023-01-29T06:19:15.959Z,3.60
2023-01-29T06:21:54.786Z,3.60
2023-01-29T06:24:21.647Z,3.60
2023-01-29T06:26:54.819Z,3.60
2023-01-29T06:29:24.130Z,3.60
2023-01-29T06:31:58.318Z,3.60
2023-01-29T06:34:33.893Z,3.60
2023-01-29T06:37:14.843Z,3.60
2023-01-29T06:39:41.705Z,3.60
2023-01-29T06:42:09.016Z,3.60
2023-01-29T06:44:42.847Z,3.60
2023-01-29T06:47:16.800Z,3.60
2023-01-29T06:49:44.744Z,3.60
2023-01-29T06:52:17.892Z,3.60
2023-01-29T06:54:44.705Z,3.60
2023-01-29T06:57:17.839Z,3.60
2023-01-29T06:59:51.808Z,3.60
2023-01-29T07:02:18.808Z,3.60
2023-01-29T07:04:51.878Z,3.60
2023-01-29T07:07:19.181Z,3.60
2023-01-29T07:09:52.945Z,3.60
2023-01-29T07:12:19.745Z,3.70
2023-01-29T07:14:52.975Z,3.70
2023-01-29T07:17:20.679Z,3.70
2023-01-29T07:19:47.478Z,3.70
2023-01-29T07:22:21.107Z,3.70
2023-01-29T07:24:55.069Z,3.70
2023-01-29T07:27:28.896Z,3.70
2023-01-29T07:29:55.808Z,3.70
2023-01-29T07:32:28.905Z,3.70
2023-01-29T07:34:59.889Z,3.70
2023-01-29T07:37:35.922Z,3.70
2023-01-29T07:40:04.989Z,3.70
2023-01-29T07:42:37.906Z,3.70
2023-01-29T07:45:07.130Z,3.70
2023-01-29T07:47:40.948Z,3.70
2023-01-29T07:50:08.488Z,3.70
2023-01-29T07:52:41.954Z,3.70
2023-01-29T07:55:16.239Z,3.70
2023-01-29T07:57:44.094Z,3.80
2023-01-29T08:00:11.784Z,3.70
2023-01-29T08:02:54.266Z,3.70
2023-01-29T08:05:21.167Z,3.80
2023-01-29T08:08:06.863Z,3.80
2023-01-29T08:10:38.186Z,3.80
2023-01-29T08:13:11.926Z,3.80
2023-01-29T08:15:45.031Z,3.80
2023-01-29T08:18:19.174Z,3.80
2023-01-29T08:20:46.220Z,3.80
2023-01-29T08:23:23.041Z,3.80
2023-01-29T08:25:49.866Z,3.80
2023-01-29T08:28:22.973Z,3.80
2023-01-29T08:30:49.805Z,3.90
2023-01-29T08:33:29.822Z,3.80
2023-01-29T08:36:04.131Z,3.80
2023-01-29T08:38:37.030Z,3.80
2023-01-29T08:41:05.006Z,3.90
2023-01-29T08:43:32.043Z,3.90
2023-01-29T08:46:08.181Z,3.90
2023-01-29T08:48:35.118Z,3.90
2023-01-29T08:51:03.025Z,3.90
2023-01-29T08:53:39.337Z,4.00
2023-01-29T08:56:06.558Z,4.00
2023-01-29T08:58:33.940Z,4.00
2023-01-29T09:01:19.091Z,4.00
2023-01-29T09:03:46.418Z,3.90
2023-01-29T09:06:21.185Z,4.00
2023-01-29T09:08:49.722Z,4.00
2023-01-29T09:11:16.621Z,4.00
2023-01-29T09:13:50.078Z,4.00
2023-01-29T09:16:17.013Z,4.00
2023-01-29T09:18:46.374Z,4.10
2023-01-29T09:21:20.197Z,4.10
2023-01-29T09:23:47.019Z,4.20
2023-01-29T09:26:13.996Z,4.20
2023-01-29T09:28:47.090Z,4.30
2023-01-29T09:31:20.147Z,4.30
2023-01-29T09:33:53.130Z,4.30
2023-01-29T09:36:19.909Z,4.30
2023-01-29T09:38:53.107Z,4.30
2023-01-29T09:41:58.457Z,4.30
2023-01-29T09:45:13.132Z,4.30
2023-01-29T09:47:52.117Z,4.20
2023-01-29T09:50:35.103Z,4.20
2023-01-29T09:53:33.099Z,4.30
2023-01-29T09:56:05.486Z,4.30
2023-01-29T09:58:40.202Z,4.40
2023-01-29T10:01:26.838Z,4.40
2023-01-29T10:04:33.263Z,4.40
2023-01-29T10:07:42.201Z,4.40
2023-01-29T10:10:44.179Z,4.40
2023-01-29T10:13:32.302Z,4.40
2023-01-29T10:16:11.107Z,4.50
2023-01-29T10:19:00.174Z,4.60
2023-01-29T10:21:52.194Z,4.60
2023-01-29T10:24:41.786Z,4.60
2023-01-29T10:27:26.222Z,4.60
2023-01-29T10:29:57.493Z,4.60
2023-01-29T10:32:33.141Z,4.70
2023-01-29T10:35:14.781Z,4.70
2023-01-29T10:37:42.722Z,4.70
2023-01-29T10:40:48.219Z,4.60
2023-01-29T10:43:31.166Z,4.60
2023-01-29T10:46:00.796Z,4.50
2023-01-29T10:48:58.212Z,4.50
2023-01-29T10:51:52.485Z,4.60
2023-01-29T10:55:15.547Z,4.60
2023-01-29T10:58:46.838Z,4.60
2023-01-29T11:01:20.379Z,4.60
2023-01-29T11:03:57.944Z,4.60
2023-01-29T11:06:39.297Z,4.60
2023-01-29T11:09:38.218Z,4.60
2023-01-29T11:12:24.230Z,4.60
2023-01-29T11:15:13.969Z,4.60
2023-01-29T11:18:08.199Z,4.60
2023-01-29T11:20:41.282Z,4.60
2023-01-29T11:23:34.350Z,4.60
2023-01-29T11:26:01.753Z,4.60
2023-01-29T11:28:53.378Z,4.70
2023-01-29T11:31:28.119Z,4.60
2023-01-29T11:34:12.256Z,4.50
2023-01-29T11:36:39.780Z,4.60
2023-01-29T11:39:22.253Z,4.60
2023-01-29T11:42:10.291Z,4.60
2023-01-29T11:44:47.301Z,4.60
2023-01-29T11:47:28.606Z,4.60
2023-01-29T11:50:08.311Z,4.60
2023-01-29T11:52:48.486Z,4.60
2023-01-29T11:55:22.551Z,4.60
2023-01-29T11:58:11.295Z,4.60
2023-01-29T12:00:52.334Z,4.60
2023-01-29T12:03:31.718Z,4.60
2023-01-29T12:06:11.317Z,4.60
2023-01-29T12:08:46.347Z,4.60
2023-01-29T12:11:40.379Z,4.60
2023-01-29T12:14:33.544Z,4.70
2023-01-29T12:17:28.389Z,4.70
2023-01-29T12:20:03.932Z,4.70
2023-01-29T12:22:47.384Z,4.70
2023-01-29T12:25:40.221Z,4.70
2023-01-29T12:28:25.368Z,4.80
2023-01-29T12:31:23.356Z,4.80
2023-01-29T12:34:23.386Z,4.80
2023-01-29T12:37:00.898Z,4.80
2023-01-29T12:39:34.361Z,4.80
2023-01-29T12:42:10.265Z,4.80
2023-01-29T12:44:59.411Z,4.80
2023-01-29T12:47:50.382Z,4.80
2023-01-29T12:50:35.386Z,4.80
2023-01-29T12:53:23.156Z,4.80
2023-01-29T12:56:02.400Z,4.80
2023-01-29T12:58:54.319Z,4.90
2023-01-29T13:01:39.441Z,4.90
2023-01-29T13:04:14.921Z,5.00
2023-01-29T13:06:59.464Z,5.10
2023-01-29T13:09:30.316Z,5.20
2023-01-29T13:12:18.423Z,5.30
2023-01-29T13:14:50.212Z,5.40
2023-01-29T13:18:04.442Z,5.40
2023-01-29T13:20:35.240Z,5.50
2023-01-29T13:23:22.501Z,5.50
2023-01-29T13:25:53.585Z,5.50
2023-01-29T13:28:30.439Z,5.50
2023-01-29T13:31:29.567Z,5.50
2023-01-29T13:34:05.520Z,5.40
2023-01-29T13:36:39.437Z,5.40
2023-01-29T13:39:15.518Z,5.40
2023-01-29T13:41:50.505Z,5.40
2023-01-29T13:44:32.498Z,5.40
2023-01-29T13:47:14.465Z,5.40
2023-01-29T13:49:52.497Z,5.40
2023-01-29T13:52:43.242Z,5.40
2023-01-29T13:55:41.469Z,5.40
2023-01-29T13:58:22.450Z,5.40
2023-01-29T14:00:50.389Z,5.40
2023-01-29T14:03:23.546Z,5.40
2023-01-29T14:06:07.569Z,5.40
2023-01-29T14:08:40.042Z,5.40
2023-01-29T14:11:22.483Z,5.40
2023-01-29T14:13:56.502Z,5.40
2023-01-29T14:16:23.314Z,5.40
2023-01-29T14:19:05.544Z,5.40
2023-01-29T14:21:44.516Z,5.40
2023-01-29T14:24:31.581Z,5.40
2023-01-29T14:27:05.546Z,5.50
2023-01-29T14:29:40.077Z,5.50
2023-01-29T14:32:13.555Z,5.60
2023-01-29T14:34:47.810Z,5.60
2023-01-29T14:37:21.599Z,5.50
2023-01-29T14:39:54.872Z,5.40
2023-01-29T14:42:36.532Z,5.40
2023-01-29T14:45:28.742Z,5.40
2023-01-29T14:48:05.619Z,5.30
2023-01-29T14:50:38.610Z,5.40
2023-01-29T14:53:05.415Z,5.30
2023-01-29T14:55:46.564Z,5.30
2023-01-29T14:58:33.167Z,5.40
2023-01-29T15:01:10.588Z,5.30
2023-01-29T15:03:52.170Z,5.30
2023-01-29T15:06:34.591Z,5.30
2023-01-29T15:09:17.849Z,5.30
2023-01-29T15:12:01.615Z,5.30
2023-01-29T15:15:22.567Z,5.20
2023-01-29T15:18:41.546Z,5.20
2023-01-29T15:21:23.620Z,5.20
2023-01-29T15:24:04.775Z,5.20
2023-01-29T15:26:38.672Z,5.20
2023-01-29T15:29:05.976Z,5.20
2023-01-29T15:31:41.841Z,5.10
2023-01-29T15:34:15.680Z,5.10
2023-01-29T15:36:42.598Z,5.10
2023-01-29T15:39:18.604Z,5.20
2023-01-29T15:41:46.181Z,5.10
2023-01-29T15:44:25.692Z,5.10
2023-01-29T15:47:01.065Z,5.10
2023-01-29T15:49:39.651Z,5.10
2023-01-29T15:52:19.199Z,5.10
2023-01-29T15:54:53.677Z,5.10
2023-01-29T15:57:28.238Z,5.10
2023-01-29T16:00:05.673Z,5.00
2023-01-29T16:02:32.725Z,5.00
2023-01-29T16:05:06.746Z,5.00
2023-01-29T16:07:41.774Z,5.00
2023-01-29T16:10:28.676Z,5.00
2023-01-29T16:12:56.264Z,5.00
2023-01-29T16:15:46.724Z,5.00
2023-01-29T16:18:35.160Z,5.00
2023-01-29T16:21:19.679Z,4.90
2023-01-29T16:23:57.737Z,5.00
2023-01-29T16:26:34.928Z,4.90
2023-01-29T16:29:14.792Z,4.90
2023-01-29T16:31:50.824Z,4.80
2023-01-29T16:34:34.690Z,4.80
2023-01-29T16:37:11.760Z,4.80
2023-01-29T16:39:43.664Z,4.80
2023-01-29T16:42:23.766Z,4.70
2023-01-29T16:45:04.720Z,4.80
2023-01-29T16:47:47.756Z,4.70
2023-01-29T16:50:40.724Z,4.70
2023-01-29T16:53:26.766Z,4.60
2023-01-29T16:55:53.685Z,4.60
2023-01-29T16:58:34.783Z,4.60
2023-01-29T17:01:07.192Z,4.60
2023-01-29T17:04:06.905Z,4.70
2023-01-29T17:06:40.421Z,4.70
2023-01-29T17:09:13.767Z,4.60
2023-01-29T17:11:50.856Z,4.70
2023-01-29T17:14:19.837Z,4.70
2023-01-29T17:17:01.778Z,4.60
2023-01-29T17:19:30.184Z,4.70
2023-01-29T17:22:05.835Z,4.70
2023-01-29T17:24:32.614Z,4.70
2023-01-29T17:27:07.872Z,4.70
2023-01-29T17:29:34.723Z,4.70
2023-01-29T17:32:07.940Z,4.60
2023-01-29T17:34:34.944Z,4.60
2023-01-29T17:37:07.850Z,4.70
2023-01-29T17:39:34.648Z,4.70
2023-01-29T17:42:07.863Z,4.70
2023-01-29T17:44:43.424Z,4.70
2023-01-29T17:47:21.878Z,4.70
2023-01-29T17:49:55.830Z,4.70
2023-01-29T17:52:22.632Z,4.70
2023-01-29T17:54:55.924Z,4.80
2023-01-29T17:57:29.772Z,4.70
2023-01-29T18:00:04.912Z,4.70
2023-01-29T18:02:33.915Z,4.70
2023-01-29T18:05:13.936Z,4.80
2023-01-29T18:07:43.454Z,4.70
2023-01-29T18:10:24.023Z,4.80
2023-01-29T18:12:50.875Z,4.80
2023-01-29T18:15:18.358Z,4.80
2023-01-29T18:17:54.848Z,4.80
2023-01-29T18:20:25.436Z,4.80
2023-01-29T18:22:59.976Z,4.80
2023-01-29T18:25:26.760Z,4.80
2023-01-29T18:27:53.560Z,4.80
2023-01-29T18:30:26.999Z,4.80
2023-01-29T18:33:01.998Z,4.80
2023-01-29T18:35:34.969Z,4.80
2023-01-29T18:38:07.930Z,4.80
2023-01-29T18:40:40.924Z,4.80
2023-01-29T18:43:08.021Z,4.80
2023-01-29T18:45:35.261Z,4.80
2023-01-29T18:48:09.010Z,4.80
2023-01-29T18:50:36.645Z,4.90
2023-01-29T18:53:14.949Z,4.80
2023-01-29T18:55:41.882Z,4.80
2023-01-29T18:58:28.001Z,4.80
2023-01-29T19:01:13.016Z,4.90
2023-01-29T19:03:41.584Z,4.90
2023-01-29T19:06:16.980Z,4.90
2023-01-29T19:08:50.984Z,4.90
2023-01-29T19:11:18.387Z,4.90
2023-01-29T19:13:52.977Z,4.90
2023-01-29T19:16:19.813Z,4.90
2023-01-29T19:18:46.799Z,4.90
2023-01-29T19:21:21.998Z,4.90
2023-01-29T19:23:54.972Z,4.90
2023-01-29T19:26:22.211Z,4.90
2023-01-29T19:28:48.973Z,4.90
2023-01-29T19:31:22.040Z,4.90
2023-01-29T19:33:55.082Z,4.90
2023-01-29T19:36:21.999Z,4.90
2023-01-29T19:38:56.083Z,4.90
2023-01-29T19:41:29.019Z,4.90
2023-01-29T19:43:55.894Z,4.90
2023-01-29T19:46:22.715Z,4.90
2023-01-29T19:48:57.059Z,4.90
2023-01-29T19:51:30.123Z,4.90
2023-01-29T19:54:04.044Z,4.90
2023-01-29T19:56:37.062Z,4.90
2023-01-29T19:59:05.083Z,4.90
2023-01-29T20:01:38.077Z,4.90
2023-01-29T20:04:05.988Z,4.90
2023-01-29T20:06:42.695Z,4.90
2023-01-29T20:09:16.070Z,4.90
2023-01-29T20:11:42.976Z,4.90
2023-01-29T20:14:11.176Z,4.90
2023-01-29T20:16:46.109Z,4.90
2023-01-29T20:19:14.946Z,4.90
2023-01-29T20:21:49.079Z,4.90
2023-01-29T20:24:16.044Z,4.90
2023-01-29T20:26:51.182Z,4.90
2023-01-29T20:29:19.547Z,4.90
2023-01-29T20:31:46.321Z,4.90
2023-01-29T20:34:20.156Z,4.90
2023-01-29T20:36:53.100Z,4.90
2023-01-29T20:39:26.407Z,4.90
2023-01-29T20:42:00.147Z,4.90
2023-01-29T20:44:33.108Z,4.90
2023-01-29T20:47:05.657Z,5.00
2023-01-29T20:49:39.129Z,4.90
2023-01-29T20:52:08.594Z,5.00
2023-01-29T20:54:42.147Z,5.00
2023-01-29T20:57:09.313Z,5.00
2023-01-29T20:59:43.227Z,5.00
2023-01-29T21:02:10.982Z,5.00
2023-01-29T21:04:37.760Z,5.10
2023-01-29T21:07:11.134Z,5.10
2023-01-29T21:09:37.912Z,5.10
2023-01-29T21:12:12.124Z,5.10
2023-01-29T21:14:45.181Z,5.20
2023-01-29T21:17:12.001Z,5.20
2023-01-29T21:19:45.121Z,5.20
2023-01-29T21:22:20.219Z,5.30
2023-01-29T21:24:47.120Z,5.30
2023-01-29T21:27:20.195Z,5.30
2023-01-29T21:29:47.099Z,5.30
2023-01-29T21:32:21.280Z,5.40
2023-01-29T21:34:48.063Z,5.40
2023-01-29T21:37:22.217Z,5.40
2023-01-29T21:39:49.036Z,5.40
2023-01-29T21:42:41.203Z,5.40
2023-01-29T21:45:15.213Z,5.40
2023-01-29T21:47:42.064Z,5.40
2023-01-29T21:50:16.702Z,5.40
2023-01-29T21:52:50.239Z,5.40
2023-01-29T21:55:17.233Z,5.40
2023-01-29T21:57:44.534Z,5.40
2023-01-29T22:00:19.452Z,5.40
2023-01-29T22:02:53.438Z,5.40
2023-01-29T22:05:35.229Z,5.30
2023-01-29T22:08:11.244Z,5.30
2023-01-29T22:10:38.973Z,5.30
2023-01-29T22:13:12.385Z,5.40
2023-01-29T22:15:39.179Z,5.40
2023-01-29T22:18:12.260Z,5.50
2023-01-29T22:20:39.169Z,5.50
2023-01-29T22:23:12.311Z,5.50
2023-01-29T22:25:45.253Z,5.60
2023-01-29T22:28:19.271Z,5.60
2023-01-29T22:30:53.356Z,5.60
2023-01-29T22:33:20.136Z,5.70
2023-01-29T22:35:59.276Z,5.60
2023-01-29T22:38:26.468Z,5.70
2023-01-29T22:41:01.350Z,5.70
2023-01-29T22:43:31.778Z,5.70
2023-01-29T22:45:58.738Z,5.70
2023-01-29T22:48:35.286Z,5.80
2023-01-29T22:51:18.324Z,5.80
2023-01-29T22:53:53.818Z,5.80
2023-01-29T22:56:31.310Z,5.80
2023-01-29T22:59:00.372Z,5.90
2023-01-29T23:01:38.365Z,5.90
2023-01-29T23:04:11.358Z,6.00
2023-01-29T23:06:51.349Z,6.00
2023-01-29T23:09:19.089Z,6.00
2023-01-29T23:11:52.308Z,6.10
2023-01-29T23:14:19.187Z,6.10
2023-01-29T23:16:53.398Z,6.10
2023-01-29T23:19:20.320Z,6.00
2023-01-29T23:21:53.301Z,6.10
2023-01-29T23:24:26.333Z,6.10
2023-01-29T23:27:18.365Z,6.10
2023-01-29T23:29:53.378Z,6.10
2023-01-29T23:32:21.935Z,6.10
2023-01-29T23:34:55.365Z,6.20
2023-01-29T23:37:28.361Z,6.20
2023-01-29T23:39:55.173Z,6.20
2023-01-29T23:42:28.410Z,6.20
2023-01-29T23:44:55.215Z,6.20
2023-01-29T23:47:28.412Z,6.20
2023-01-29T23:49:55.207Z,6.30
2023-01-29T23:52:28.402Z,6.20
2023-01-29T23:54:55.128Z,6.30
2023-01-29T23:57:22.061Z,6.30
2023-01-29T23:59:55.432Z,6.30
